createdAt,value
2023-04-02T00:00:10.873Z,1.80
2023-04-02T00:03:13.362Z,1.73
2023-04-02T00:06:32.961Z,1.50
2023-04-02T00:09:37.445Z,1.50
2023-04-02T00:12:39.863Z,1.70
2023-04-02T00:15:46.160Z,1.43
2023-04-02T00:18:52.681Z,1.60
2023-04-02T00:21:57.466Z,1.15
2023-04-02T00:25:03.994Z,0.98
2023-04-02T00:28:06.447Z,1.33
2023-04-02T00:31:11.077Z,1.60
2023-04-02T00:34:24.164Z,1.65
2023-04-02T00:37:30.319Z,1.73
2023-04-02T00:40:32.491Z,1.30
2023-04-02T00:43:38.491Z,1.65
2023-04-02T00:46:48.577Z,1.47
2023-04-02T00:49:58.833Z,1.85
2023-04-02T00:53:09.092Z,2.10
2023-04-02T00:56:25.949Z,2.33
2023-04-02T00:59:35.954Z,1.80
2023-04-02T01:02:40.960Z,1.87
2023-04-02T01:05:45.532Z,2.40
2023-04-02T01:08:55.147Z,2.12
2023-04-02T01:12:03.402Z,2.00
2023-04-02T01:15:39.976Z,2.08
2023-04-02T01:19:02.511Z,2.03
2023-04-02T01:22:22.377Z,2.25
2023-04-02T01:25:41.034Z,2.10
2023-04-02T01:29:06.865Z,1.85
2023-04-02T01:32:15.144Z,1.87
2023-04-02T01:35:17.715Z,1.60
2023-04-02T01:38:38.246Z,1.75
2023-04-02T01:41:48.360Z,1.80
2023-04-02T01:44:59.725Z,1.73
2023-04-02T01:48:24.937Z,2.00
2023-04-02T01:51:31.888Z,1.67
2023-04-02T01:54:37.995Z,1.95
2023-04-02T01:57:47.773Z,2.00
2023-04-02T02:00:53.468Z,1.70
2023-04-02T02:03:55.808Z,1.83
2023-04-02T02:07:02.847Z,1.87
2023-04-02T02:10:05.889Z,2.20
2023-04-02T02:13:14.949Z,2.05
2023-04-02T02:16:18.600Z,1.92
2023-04-02T02:19:29.043Z,2.28
2023-04-02T02:22:35.726Z,2.00
2023-04-02T02:25:38.187Z,1.55
2023-04-02T02:28:42.835Z,1.92
2023-04-02T02:31:48.602Z,2.03
2023-04-02T02:35:00.528Z,2.42
2023-04-02T02:38:27.179Z,2.20
2023-04-02T02:41:31.900Z,2.40
2023-04-02T02:44:37.026Z,2.20
2023-04-02T02:47:42.417Z,2.15
2023-04-02T02:50:45.389Z,2.17
2023-04-02T02:53:53.726Z,1.97
2023-04-02T02:57:03.333Z,2.28
2023-04-02T03:00:08.130Z,2.33
2023-04-02T03:03:34.495Z,2.03
2023-04-02T03:06:36.865Z,2.20
2023-04-02T03:10:04.434Z,2.03
2023-04-02T03:13:32.897Z,2.10
2023-04-02T03:16:41.209Z,1.90
2023-04-02T03:19:56.406Z,2.00
2023-04-02T03:23:13.417Z,2.20
2023-04-02T03:26:23.281Z,2.00
2023-04-02T03:29:33.443Z,2.45
2023-04-02T03:32:39.454Z,2.00
2023-04-02T03:35:48.225Z,2.03
2023-04-02T03:39:24.774Z,2.20
2023-04-02T03:42:30.857Z,2.50
2023-04-02T03:45:39.852Z,2.53
2023-04-02T03:48:47.174Z,2.10
2023-04-02T03:51:57.716Z,2.83
2023-04-02T03:55:02.803Z,2.60
2023-04-02T03:58:23.315Z,3.00
2023-04-02T04:01:52.323Z,3.00
2023-04-02T04:04:56.659Z,3.58
2023-04-02T04:08:06.722Z,5.03
2023-04-02T04:11:20.174Z,4.07
2023-04-02T04:14:32.405Z,4.50
2023-04-02T04:17:41.139Z,5.20
2023-04-02T04:20:57.651Z,4.90
2023-04-02T04:24:15.033Z,4.78
2023-04-02T04:27:42.982Z,4.32
2023-04-02T04:31:02.102Z,3.50
2023-04-02T04:34:11.763Z,3.20
2023-04-02T04:37:21.824Z,2.90
2023-04-02T04:40:28.406Z,2.70
2023-04-02T04:43:44.278Z,2.45
2023-04-02T04:47:11.108Z,2.40
2023-04-02T04:50:21.880Z,2.25
2023-04-02T04:53:26.488Z,2.53
2023-04-02T04:56:30.952Z,2.83
2023-04-02T04:59:44.559Z,2.28
2023-04-02T05:02:54.495Z,2.47
2023-04-02T05:06:06.475Z,2.80
2023-04-02T05:09:13.761Z,2.65
2023-04-02T05:12:26.920Z,2.90
2023-04-02T05:15:42.353Z,2.40
2023-04-02T05:18:51.389Z,2.43
2023-04-02T05:22:12.097Z,2.40
2023-04-02T05:25:23.755Z,2.47
2023-04-02T05:28:38.022Z,2.20
2023-04-02T05:31:48.993Z,2.05
2023-04-02T05:34:55.089Z,1.97
2023-04-02T05:37:58.214Z,1.90
2023-04-02T05:41:27.239Z,2.50
2023-04-02T05:44:38.582Z,1.95
2023-04-02T05:47:43.911Z,2.22
2023-04-02T05:50:51.333Z,2.20
2023-04-02T05:53:58.780Z,2.40
2023-04-02T05:57:08.019Z,2.17
2023-04-02T06:00:23.826Z,2.08
2023-04-02T06:03:28.610Z,2.35
2023-04-02T06:06:39.873Z,2.40
2023-04-02T06:10:05.143Z,1.73
2023-04-02T06:13:08.740Z,2.10
2023-04-02T06:16:15.288Z,1.80
2023-04-02T06:19:34.160Z,1.92
2023-04-02T06:22:43.568Z,1.70
2023-04-02T06:26:20.766Z,1.58
2023-04-02T06:29:40.219Z,2.00
2023-04-02T06:32:42.430Z,1.90
2023-04-02T06:35:47.189Z,1.80
2023-04-02T06:38:51.221Z,2.00
2023-04-02T06:42:24.971Z,2.10
2023-04-02T06:45:33.473Z,2.30
2023-04-02T06:48:38.140Z,1.90
2023-04-02T06:51:43.668Z,2.90
2023-04-02T06:54:47.464Z,1.97
2023-04-02T06:57:49.732Z,1.87
2023-04-02T07:00:52.401Z,2.00
2023-04-02T07:03:55.444Z,2.00
2023-04-02T07:06:57.663Z,2.12
2023-04-02T07:09:59.844Z,2.23
2023-04-02T07:13:02.688Z,2.67
2023-04-02T07:16:05.282Z,3.10
2023-04-02T07:19:20.661Z,2.90
2023-04-02T07:22:22.877Z,2.80
2023-04-02T07:25:26.923Z,3.43
2023-04-02T07:28:29.424Z,3.72
2023-04-02T07:31:31.737Z,3.85
2023-04-02T07:34:34.515Z,4.20
2023-04-02T07:37:38.701Z,3.22
2023-04-02T07:40:41.445Z,3.60
2023-04-02T07:43:44.819Z,3.03
2023-04-02T07:46:47.406Z,3.33
2023-04-02T07:49:49.560Z,2.75
2023-04-02T07:52:51.684Z,3.50
2023-04-02T07:55:54.221Z,3.23
2023-04-02T07:58:56.564Z,2.90
2023-04-02T08:01:59.128Z,2.83
2023-04-02T08:05:01.662Z,2.87
2023-04-02T08:08:03.791Z,2.65
2023-04-02T08:11:06.622Z,1.20
2023-04-02T08:14:09.665Z,1.02
2023-04-02T08:17:12.074Z,1.40
2023-04-02T08:20:22.636Z,1.33
2023-04-02T08:23:25.546Z,2.97
2023-04-02T08:26:27.922Z,1.00
2023-04-02T08:29:32.452Z,0.60
2023-04-02T08:32:34.610Z,0.70
2023-04-02T08:35:37.076Z,0.60
2023-04-02T08:38:39.367Z,0.75
2023-04-02T08:42:02.940Z,0.60
2023-04-02T08:45:23.515Z,1.05
2023-04-02T08:48:27.374Z,0.55
2023-04-02T08:51:34.644Z,0.50
2023-04-02T08:54:38.172Z,0.60
2023-04-02T08:57:42.858Z,0.40
2023-04-02T09:00:47.897Z,0.50
2023-04-02T09:03:52.391Z,0.60
2023-04-02T09:06:56.832Z,0.40
2023-04-02T09:09:59.584Z,0.60
2023-04-02T09:13:03.281Z,0.37
2023-04-02T09:16:12.357Z,0.40
2023-04-02T09:19:25.527Z,0.60
2023-04-02T09:22:38.569Z,0.60
2023-04-02T09:25:54.096Z,0.50
2023-04-02T09:29:12.632Z,0.60
2023-04-02T09:32:28.166Z,0.60
2023-04-02T09:35:32.937Z,0.60
2023-04-02T09:38:35.660Z,0.40
2023-04-02T09:41:38.719Z,0.65
2023-04-02T09:44:41.404Z,0.60
2023-04-02T09:47:43.568Z,0.60
2023-04-02T09:50:45.749Z,0.65
2023-04-02T09:53:49.606Z,0.50
2023-04-02T09:57:03.669Z,0.70
2023-04-02T10:03:33.130Z,0.62
2023-04-02T10:06:35.405Z,0.60
2023-04-02T10:09:39.029Z,0.73
2023-04-02T10:12:42.552Z,0.70
2023-04-02T10:15:47.375Z,0.50
2023-04-02T10:19:13.422Z,0.70
2023-04-02T10:22:18.215Z,0.80
2023-04-02T10:25:25.448Z,0.70
2023-04-02T10:28:43.308Z,0.88
2023-04-02T10:32:07.032Z,0.90
2023-04-02T10:35:38.353Z,0.50
2023-04-02T10:38:55.621Z,0.80
2023-04-02T10:42:21.602Z,0.50
2023-04-02T10:45:57.753Z,0.70
2023-04-02T10:49:21.519Z,0.40
2023-04-02T10:52:23.455Z,0.70
2023-04-02T10:55:33.959Z,0.70
2023-04-02T10:58:51.385Z,0.73
2023-04-02T11:01:56.819Z,0.52
2023-04-02T11:05:05.975Z,0.63
2023-04-02T11:08:26.266Z,0.75
2023-04-02T11:11:36.765Z,0.90
2023-04-02T11:14:41.177Z,0.90
2023-04-02T11:17:45.226Z,1.10
2023-04-02T11:20:50.566Z,1.07
2023-04-02T11:24:03.450Z,0.73
2023-04-02T11:27:11.544Z,1.17
2023-04-02T11:30:18.198Z,0.90
2023-04-02T11:33:39.171Z,1.00
2023-04-02T11:37:03.697Z,0.90
2023-04-02T11:40:12.302Z,0.80
2023-04-02T11:43:32.938Z,1.00
2023-04-02T11:46:40.641Z,0.90
2023-04-02T11:50:01.956Z,1.10
2023-04-02T11:53:14.973Z,0.80
2023-04-02T11:56:22.007Z,0.77
2023-04-02T11:59:33.754Z,0.80
2023-04-02T12:02:54.020Z,0.70
2023-04-02T12:06:04.383Z,0.90
2023-04-02T12:09:34.818Z,0.70
2023-04-02T12:12:40.581Z,0.90
2023-04-02T12:15:44.833Z,0.80
2023-04-02T12:18:54.020Z,0.73
2023-04-02T12:21:56.753Z,1.00
2023-04-02T12:25:05.573Z,0.77
2023-04-02T12:28:14.705Z,0.80
2023-04-02T12:31:21.766Z,0.80
2023-04-02T12:34:28.680Z,0.75
2023-04-02T12:37:31.874Z,0.68
2023-04-02T12:40:34.401Z,0.60
2023-04-02T12:43:38.200Z,0.50
2023-04-02T12:46:40.769Z,0.70
2023-04-02T12:49:44.947Z,0.62
2023-04-02T12:52:50.420Z,0.50
2023-04-02T12:55:54.369Z,0.40
2023-04-02T12:58:58.285Z,0.70
2023-04-02T13:02:02.908Z,0.68
2023-04-02T13:05:05.179Z,0.50
2023-04-02T13:08:16.650Z,0.65
2023-04-02T13:11:19.291Z,0.50
2023-04-02T13:14:24.631Z,0.60
2023-04-02T13:17:45.473Z,0.60
2023-04-02T13:21:00.146Z,1.40
2023-04-02T13:24:02.152Z,1.77
2023-04-02T13:27:04.830Z,0.60
2023-04-02T13:30:09.623Z,1.05
2023-04-02T13:33:12.233Z,1.27
2023-04-02T13:36:15.411Z,1.80
2023-04-02T13:39:18.162Z,1.17
2023-04-02T13:42:20.511Z,1.43
2023-04-02T13:45:27.536Z,1.10
2023-04-02T13:48:29.875Z,0.70
2023-04-02T13:51:37.870Z,1.10
2023-04-02T13:55:00.164Z,0.70
2023-04-02T13:58:03.759Z,0.97
2023-04-02T14:01:06.761Z,0.40
2023-04-02T14:04:12.912Z,0.70
2023-04-02T14:07:48.670Z,0.40
2023-04-02T14:10:54.650Z,0.80
2023-04-02T14:14:17.425Z,0.57
2023-04-02T14:17:52.114Z,0.90
2023-04-02T14:21:19.160Z,0.75
2023-04-02T14:25:06.430Z,0.70
2023-04-02T14:28:26.987Z,0.55
2023-04-02T14:31:47.231Z,0.53
2023-04-02T14:35:05.142Z,0.43
2023-04-02T14:38:32.354Z,0.62
2023-04-02T14:41:46.513Z,0.50
2023-04-02T14:45:04.668Z,0.60
2023-04-02T14:48:51.801Z,0.40
2023-04-02T14:52:06.499Z,0.43
2023-04-02T14:55:22.830Z,0.70
2023-04-02T14:59:23.759Z,0.60
2023-04-02T15:02:46.818Z,0.40
2023-04-02T15:05:57.675Z,0.40
2023-04-02T15:09:12.343Z,0.47
2023-04-02T15:12:36.311Z,0.60
2023-04-02T15:15:44.592Z,0.40
2023-04-02T15:18:51.269Z,0.40
2023-04-02T15:22:28.962Z,0.50
2023-04-02T15:25:43.383Z,0.60
2023-04-02T15:29:29.669Z,0.40
2023-04-02T15:32:35.455Z,0.50
2023-04-02T15:35:48.017Z,0.40
2023-04-02T15:39:12.519Z,0.30
2023-04-02T15:42:31.182Z,0.20
2023-04-02T15:45:49.357Z,0.40
2023-04-02T15:48:55.107Z,0.37
2023-04-02T15:52:13.062Z,0.32
2023-04-02T15:55:44.551Z,0.40
2023-04-02T15:59:24.975Z,0.40
2023-04-02T16:02:59.214Z,0.52
2023-04-02T16:06:26.911Z,0.40
2023-04-02T16:09:43.466Z,0.52
2023-04-02T16:12:46.947Z,0.50
2023-04-02T16:16:11.345Z,0.50
2023-04-02T16:19:40.111Z,0.43
2023-04-02T16:22:59.376Z,0.50
2023-04-02T16:26:11.179Z,0.47
2023-04-02T16:29:20.362Z,0.30
2023-04-02T16:32:46.601Z,0.40
2023-04-02T16:36:02.380Z,0.43
2023-04-02T16:39:44.711Z,0.35
2023-04-02T16:42:51.645Z,0.47
2023-04-02T16:46:12.504Z,0.50
2023-04-02T16:49:56.761Z,0.93
2023-04-02T16:53:54.554Z,0.88
2023-04-02T16:57:31.579Z,0.50
2023-04-02T17:00:54.689Z,0.45
2023-04-02T17:04:29.500Z,0.60
2023-04-02T17:07:44.770Z,0.50
2023-04-02T17:10:53.893Z,0.70
2023-04-02T17:14:07.057Z,0.70
2023-04-02T17:17:17.743Z,0.70
2023-04-02T17:20:25.804Z,0.87
2023-04-02T17:23:32.117Z,0.40
2023-04-02T17:26:39.111Z,0.50
2023-04-02T17:29:46.467Z,0.57
2023-04-02T17:32:49.765Z,0.80
2023-04-02T17:36:01.610Z,0.97
2023-04-02T17:39:17.473Z,0.82
2023-04-02T17:42:48.980Z,1.35
2023-04-02T17:45:56.111Z,0.70
2023-04-02T17:49:16.900Z,1.12
2023-04-02T17:52:48.505Z,1.30
2023-04-02T17:56:03.839Z,1.12
2023-04-02T17:59:28.471Z,1.20
2023-04-02T18:02:47.256Z,1.40
2023-04-02T18:06:07.350Z,1.20
2023-04-02T18:09:37.763Z,1.93
2023-04-02T18:13:09.449Z,1.70
2023-04-02T18:16:34.203Z,1.70
2023-04-02T18:20:04.973Z,1.02
2023-04-02T18:23:38.423Z,1.23
2023-04-02T18:26:48.532Z,0.83
2023-04-02T18:30:12.175Z,1.27
2023-04-02T18:33:25.680Z,1.83
2023-04-02T18:36:38.661Z,1.77
2023-04-02T18:40:05.936Z,1.90
2023-04-02T18:43:27.166Z,1.40
2023-04-02T18:47:11.656Z,1.33
2023-04-02T18:50:37.203Z,1.58
2023-04-02T18:53:42.706Z,1.83
2023-04-02T18:56:46.611Z,1.65
2023-04-02T18:59:58.567Z,1.43
2023-04-02T19:03:01.874Z,1.83
2023-04-02T19:06:25.029Z,1.77
2023-04-02T19:09:42.362Z,1.17
2023-04-02T19:12:46.617Z,1.58
2023-04-02T19:15:57.530Z,2.13
2023-04-02T19:19:27.338Z,1.20
2023-04-02T19:23:10.794Z,1.52
2023-04-02T19:26:23.606Z,1.35
2023-04-02T19:30:01.232Z,1.95
2023-04-02T19:33:42.418Z,1.80
2023-04-02T19:36:57.351Z,1.58
2023-04-02T19:40:25.259Z,1.42
2023-04-02T19:43:28.921Z,2.28
2023-04-02T19:46:32.230Z,1.98
2023-04-02T19:49:36.298Z,2.07
2023-04-02T19:52:39.997Z,1.80
2023-04-02T19:55:44.616Z,1.48
2023-04-02T19:58:47.462Z,1.45
2023-04-02T20:01:51.358Z,1.83
2023-04-02T20:04:54.198Z,2.10
2023-04-02T20:07:57.361Z,1.85
2023-04-02T20:11:00.726Z,1.87
2023-04-02T20:14:07.262Z,0.80
2023-04-02T20:17:10.308Z,1.75
2023-04-02T20:20:14.321Z,1.63
2023-04-02T20:23:25.216Z,1.87
2023-04-02T20:26:28.425Z,1.40
2023-04-02T20:29:32.803Z,1.83
2023-04-02T20:32:37.803Z,1.33
2023-04-02T20:35:41.417Z,1.37
2023-04-02T20:38:46.325Z,2.22
2023-04-02T20:41:49.103Z,1.75
2023-04-02T20:44:52.260Z,1.48
2023-04-02T20:47:55.689Z,1.23
2023-04-02T20:51:16.965Z,1.40
2023-04-02T20:54:38.118Z,1.60
2023-04-02T20:57:40.362Z,1.48
2023-04-02T21:00:42.563Z,1.25
2023-04-02T21:03:45.328Z,2.08
2023-04-02T21:06:47.657Z,1.10
2023-04-02T21:09:49.727Z,1.60
2023-04-02T21:12:51.899Z,1.45
2023-04-02T21:15:53.991Z,1.55
2023-04-02T21:19:01.155Z,1.83
2023-04-02T21:22:04.398Z,1.50
2023-04-02T21:25:06.795Z,1.58
2023-04-02T21:28:09.347Z,1.50
2023-04-02T21:31:17.238Z,1.33
2023-04-02T21:34:19.523Z,1.95
2023-04-02T21:37:22.952Z,1.60
2023-04-02T21:40:25.646Z,1.67
2023-04-02T21:43:27.746Z,1.73
2023-04-02T21:46:31.930Z,1.45
2023-04-02T21:49:35.340Z,2.50
2023-04-02T21:52:37.545Z,1.10
2023-04-02T21:55:39.713Z,1.52
2023-04-02T21:58:43.498Z,1.40
2023-04-02T22:01:50.776Z,1.20
2023-04-02T22:04:52.940Z,1.33
2023-04-02T22:07:55.031Z,1.93
2023-04-02T22:10:57.252Z,0.85
2023-04-02T22:14:00.304Z,1.92
2023-04-02T22:17:03.544Z,1.40
2023-04-02T22:20:06.905Z,1.10
2023-04-02T22:23:10.437Z,1.27
2023-04-02T22:26:14.314Z,1.33
2023-04-02T22:29:17.279Z,1.90
2023-04-02T22:32:19.413Z,1.90
2023-04-02T22:35:21.558Z,0.73
2023-04-02T22:38:23.548Z,1.07
2023-04-02T22:41:28.376Z,1.50
2023-04-02T22:44:30.425Z,1.48
2023-04-02T22:47:32.586Z,1.52
2023-04-02T22:50:35.038Z,0.90
2023-04-02T22:53:38.299Z,0.77
2023-04-02T22:56:40.487Z,2.00
2023-04-02T22:59:42.570Z,1.37
2023-04-02T23:02:45.142Z,1.77
2023-04-02T23:06:01.653Z,0.73
2023-04-02T23:09:04.314Z,1.47
2023-04-02T23:12:06.547Z,1.87
2023-04-02T23:15:10.048Z,0.70
2023-04-02T23:18:12.150Z,1.52
2023-04-02T23:21:15.254Z,1.48
2023-04-02T23:24:17.920Z,1.33
2023-04-02T23:27:20.742Z,1.15
2023-04-02T23:30:22.985Z,1.15
2023-04-02T23:33:25.127Z,1.40
2023-04-02T23:36:30.187Z,1.10
2023-04-02T23:39:32.251Z,1.50
2023-04-02T23:42:34.932Z,1.70
2023-04-02T23:45:37.035Z,1.27
2023-04-02T23:48:39.299Z,1.60
2023-04-02T23:51:41.685Z,1.50
2023-04-02T23:54:43.894Z,1.40
2023-04-02T23:57:46.373Z,1.12
